Time;durP1;ratioP1;P1;durP2;ratioP2;P2;SDS_P1;SDS_P2;PMS_P1;PMS_P2;Temp;Humidity;BMP_temperature;BMP_pressure;BME280_temperature;BME280_humidity;BME280_pressure;Samples;Min_cycle;Max_cycle;Signal;HPM_P1;HPM_P2
2021/07/13 00:00:23;;;;;;;12.50;9.80;;;;;;;15.38;96.93;97763.81;1736385;82;21002;-74
2021/07/13 00:02:51;;;;;;;12.85;10.35;;;;;;;15.36;97.06;97762.78;1736134;82;20943;-73
2021/07/13 00:05:19;;;;;;;10.88;9.08;;;;;;;15.33;97.14;97757.16;1736446;82;21162;-74
2021/07/13 00:07:46;;;;;;;14.68;10.00;;;;;;;15.31;97.18;97757.48;1736001;82;20981;-73
2021/07/13 00:10:15;;;;;;;15.63;9.93;;;;;;;15.35;97.13;97745.35;1736353;82;20983;-73
2021/07/13 00:12:41;;;;;;;11.78;9.28;;;;;;;15.37;97.18;97749.93;1736224;82;20978;-73
2021/07/13 00:15:11;;;;;;;13.05;11.12;;;;;;;15.29;97.12;97751.51;1715687;82;21014;-73
2021/07/13 00:17:37;;;;;;;13.43;10.78;;;;;;;15.29;97.24;97753.44;1736203;82;21403;-73
2021/07/13 00:20:05;;;;;;;11.70;9.40;;;;;;;15.26;97.72;97748.62;1736468;82;20906;-72
2021/07/13 00:22:31;;;;;;;14.60;10.00;;;;;;;15.29;97.67;97746.61;1736057;82;21351;-72
2021/07/13 00:24:57;;;;;;;12.70;8.95;;;;;;;15.26;97.61;97743.16;1736337;82;20950;-72
2021/07/13 00:27:23;;;;;;;15.15;9.83;;;;;;;15.22;97.91;97738.91;1743226;81;20838;-72
2021/07/13 00:29:49;;;;;;;11.50;9.08;;;;;;;15.22;98.02;97741.08;1744648;82;21208;-73
2021/07/13 00:32:15;;;;;;;11.50;9.85;;;;;;;15.15;98.52;97732.54;1744330;82;21450;-73
2021/07/13 00:34:41;;;;;;;11.88;8.90;;;;;;;15.16;98.43;97734.70;1744477;82;20871;-73
2021/07/13 00:37:07;;;;;;;9.83;8.10;;;;;;;15.13;98.88;97732.06;1744696;82;20830;-73
2021/07/13 00:39:33;;;;;;;14.18;8.20;;;;;;;15.20;98.13;97720.66;1744607;82;21481;-73
2021/07/13 00:41:59;;;;;;;10.95;8.25;;;;;;;15.19;97.97;97719.86;1744462;82;21286;-72
2021/07/13 00:44:24;;;;;;;11.10;8.40;;;;;;;15.19;98.18;97719.05;1744777;82;20893;-73
2021/07/13 00:46:50;;;;;;;9.73;8.30;;;;;;;15.22;97.77;97715.15;1744592;81;21535;-73
2021/07/13 00:49:17;;;;;;;9.33;7.15;;;;;;;15.23;97.78;97714.02;1744871;82;20858;-73
2021/07/13 00:51:44;;;;;;;9.93;8.43;;;;;;;15.22;97.84;97710.25;1715241;82;21402;-73
2021/07/13 00:54:11;;;;;;;9.43;8.40;;;;;;;15.24;97.70;97708.00;1744711;82;21046;-73
2021/07/13 00:56:41;;;;;;;12.43;8.43;;;;;;;15.23;97.60;97714.59;1744573;82;21363;-73
2021/07/13 00:59:07;;;;;;;9.20;8.20;;;;;;;15.24;97.62;97712.90;1744748;82;20958;-72
2021/07/13 01:01:33;;;;;;;9.40;7.60;;;;;;;15.27;97.57;97714.18;1677563;82;20915;-72
2021/07/13 01:04:01;;;;;;;13.65;7.90;;;;;;;15.27;97.52;97712.81;1744712;82;21481;-72
2021/07/13 01:06:33;;;;;;;10.80;8.43;;;;;;;15.29;97.46;97716.59;1744770;82;21318;-72
2021/07/13 01:09:13;;;;;;;11.22;8.58;;;;;;;15.30;97.43;97709.47;1744581;82;20939;-73
2021/07/13 01:11:49;;;;;;;9.63;8.28;;;;;;;15.30;97.38;97712.20;1744573;82;21049;-73
2021/07/13 01:14:36;;;;;;;9.70;7.83;;;;;;;15.27;97.33;97708.72;1716811;82;20965;-72
2021/07/13 01:17:14;;;;;;;11.12;8.95;;;;;;;15.25;97.30;97700.05;1744501;82;21006;-73
2021/07/13 01:20:26;;;;;;;9.88;8.13;;;;;;;15.23;97.30;97699.02;1744948;82;21743;-73
2021/07/13 01:23:10;;;;;;;7.83;6.85;;;;;;;15.17;97.30;97687.19;1743382;82;21323;-73
2021/07/13 01:25:42;;;;;;;12.98;8.70;;;;;;;15.16;97.29;97685.59;1744248;82;21006;-73
2021/07/13 01:28:15;;;;;;;11.45;8.58;;;;;;;15.10;97.25;97686.28;1744312;82;20970;-73
2021/07/13 01:30:44;;;;;;;9.58;7.78;;;;;;;15.08;98.00;97679.54;1744655;82;20966;-73
2021/07/13 01:33:21;;;;;;;11.53;8.10;;;;;;;15.09;97.98;97679.22;1715104;82;21288;-73
2021/07/13 01:36:07;;;;;;;19.35;9.23;;;;;;;15.08;97.26;97677.61;1744552;81;20962;-72
2021/07/13 01:38:39;;;;;;;13.68;7.78;;;;;;;15.08;97.49;97683.64;1744809;81;20950;-73
2021/07/13 01:41:11;;;;;;;10.63;8.18;;;;;;;15.09;97.61;97679.22;1744084;82;21034;-72
2021/07/13 01:43:39;;;;;;;8.98;7.97;;;;;;;15.13;97.56;97672.02;1744622;81;20998;-72
2021/07/13 01:46:07;;;;;;;9.15;7.90;;;;;;;15.17;97.27;97677.64;1744687;82;21872;-73
2021/07/13 01:48:33;;;;;;;11.83;8.88;;;;;;;15.17;97.63;97676.27;1744714;82;20958;-72
2021/07/13 01:50:58;;;;;;;12.07;8.18;;;;;;;15.19;97.30;97676.75;1744664;82;20917;-72
2021/07/13 01:53:26;;;;;;;11.50;8.55;;;;;;;15.20;97.12;97679.16;1744812;82;20922;-73
2021/07/13 01:55:52;;;;;;;11.25;9.15;;;;;;;15.19;97.21;97676.19;1716000;82;20954;-73
2021/07/13 01:58:18;;;;;;;10.23;8.83;;;;;;;15.22;96.75;97677.50;1744422;82;21152;-73
2021/07/13 02:00:45;;;;;;;11.38;8.43;;;;;;;15.18;96.44;97674.59;1744356;81;21201;-73
2021/07/13 02:03:11;;;;;;;11.10;8.70;;;;;;;15.14;96.79;97673.63;1744278;82;20947;-73
2021/07/13 02:05:38;;;;;;;16.57;11.05;;;;;;;15.09;96.65;97672.40;1744737;82;21398;-73
2021/07/13 02:08:05;;;;;;;10.20;8.15;;;;;;;15.09;96.44;97675.69;1744373;82;20906;-73
2021/07/13 02:10:31;;;;;;;7.78;6.97;;;;;;;15.02;95.97;97680.23;1744605;81;21060;-73
2021/07/13 02:12:57;;;;;;;9.43;7.83;;;;;;;14.96;96.00;97689.70;1744373;82;21009;-73
2021/07/13 02:15:23;;;;;;;9.55;7.45;;;;;;;14.86;95.91;97684.52;1744321;82;20918;-73
2021/07/13 02:17:52;;;;;;;10.90;8.18;;;;;;;14.82;95.83;97684.91;1744366;82;21536;-73
2021/07/13 02:20:20;;;;;;;;;;;;;;;14.80;95.85;97682.51;1747206;82;21057;-73
2021/07/13 02:22:46;;;;;;;9.25;6.37;;;;;;;14.75;96.02;97684.56;1744393;81;20993;-73
2021/07/13 02:25:14;;;;;;;9.93;7.58;;;;;;;14.71;95.71;97694.50;1744614;82;20893;-73
2021/07/13 02:28:16;;;;;;;8.88;7.00;;;;;;;14.65;95.89;97697.91;1739130;82;21020;-73
2021/07/13 02:30:47;;;;;;;9.38;6.70;;;;;;;14.62;95.95;97697.98;1736432;81;21027;-72
2021/07/13 02:33:18;;;;;;;9.80;7.22;;;;;;;14.55;96.14;97715.35;1736256;82;21037;-73
2021/07/13 02:35:49;;;;;;;8.93;6.70;;;;;;;14.57;96.11;97713.11;1736562;82;21119;-73
2021/07/13 02:38:15;;;;;;;7.42;6.22;;;;;;;14.59;95.83;97708.14;1736078;82;21505;-72
2021/07/13 02:40:41;;;;;;;7.17;6.15;;;;;;;14.54;95.97;97711.02;1736513;82;20866;-72
2021/07/13 02:43:07;;;;;;;8.08;6.97;;;;;;;14.56;95.82;97703.88;1736293;81;20847;-73
2021/07/13 02:45:33;;;;;;;7.28;6.28;;;;;;;14.59;95.61;97712.79;1736428;82;21387;-72
2021/07/13 02:47:59;;;;;;;9.43;7.25;;;;;;;14.59;95.63;97722.33;1736295;82;21050;-72
2021/07/13 02:50:25;;;;;;;10.48;6.53;;;;;;;14.58;95.97;97722.89;1736463;81;20902;-72
2021/07/13 02:52:52;;;;;;;8.08;6.17;;;;;;;14.57;96.25;97719.12;1736547;82;20926;-73
2021/07/13 02:55:20;;;;;;;7.95;6.33;;;;;;;14.55;96.04;97723.53;1736453;82;20970;-73
2021/07/13 02:57:46;;;;;;;8.88;5.97;;;;;;;14.54;95.49;97736.12;1736393;82;20966;-73
2021/07/13 03:00:14;;;;;;;7.35;5.97;;;;;;;14.50;95.67;97726.94;1736515;82;21323;-72
2021/07/13 03:02:43;;;;;;;7.23;6.33;;;;;;;14.47;95.76;97721.56;1736336;82;20962;-73
2021/07/13 03:05:20;;;;;;;8.25;6.05;;;;;;;14.50;95.57;97722.84;1715616;82;20982;-73
2021/07/13 03:07:48;;;;;;;9.85;6.25;;;;;;;14.51;95.83;97721.73;1736177;82;21462;-72
2021/07/13 03:10:13;;;;;;;12.33;6.87;;;;;;;14.51;95.24;97726.62;1710449;82;21519;-73
2021/07/13 03:12:39;;;;;;;7.75;6.62;;;;;;;14.53;95.34;97723.05;1736182;82;21101;-73
2021/07/13 03:15:07;;;;;;;11.63;6.70;;;;;;;14.46;95.29;97720.52;1736075;82;21445;-72
2021/07/13 03:17:33;;;;;;;6.42;5.55;;;;;;;14.42;95.41;97719.48;1736390;82;21383;-73
2021/07/13 03:19:59;;;;;;;9.93;6.50;;;;;;;14.32;95.25;97715.90;1736477;82;21521;-72
2021/07/13 03:22:30;;;;;;;13.15;6.85;;;;;;;14.27;95.31;97711.12;1736220;82;21331;-72
2021/07/13 03:24:58;;;;;;;10.20;7.05;;;;;;;14.27;96.34;97709.76;1736492;82;22005;-72
2021/07/13 03:27:24;;;;;;;9.33;7.40;;;;;;;14.32;96.28;97709.09;1736340;81;21324;-72
2021/07/13 03:29:51;;;;;;;10.00;7.85;;;;;;;14.40;95.80;97700.72;1736386;82;20886;-73
2021/07/13 03:32:17;;;;;;;11.22;9.45;;;;;;;14.45;95.68;97700.63;1736339;82;21380;-73
2021/07/13 03:34:44;;;;;;;11.25;7.70;;;;;;;14.54;96.33;97705.56;1736486;82;20966;-76
2021/07/13 03:37:10;;;;;;;9.03;7.30;;;;;;;14.62;95.86;97706.17;1733078;82;22000;-72
2021/07/13 03:39:54;;;;;;;7.40;6.50;;;;;;;14.61;95.32;97705.93;1670482;85;20879;-70
2021/07/13 03:42:21;;;;;;;7.62;6.75;;;;;;;14.62;95.44;97705.37;1671090;85;20990;-68
2021/07/13 03:44:47;;;;;;;6.90;6.05;;;;;;;14.65;95.43;97704.73;1669120;85;21056;-68
2021/07/13 03:47:15;;;;;;;9.15;6.50;;;;;;;14.73;95.76;97707.26;1657114;86;20921;-70
2021/07/13 03:49:42;;;;;;;7.05;6.33;;;;;;;14.77;95.33;97700.84;1660033;85;21472;-69
2021/07/13 03:52:08;;;;;;;8.98;5.87;;;;;;;14.84;95.33;97703.93;1680691;84;20946;-79
2021/07/13 03:54:34;;;;;;;11.65;6.03;;;;;;;14.91;94.79;97696.66;1701303;84;20902;-76
2021/07/13 03:57:00;;;;;;;6.85;6.05;;;;;;;14.96;94.74;97701.98;1696287;84;20936;-77
2021/07/13 03:59:34;;;;;;;6.40;5.58;;;;;;;14.96;94.36;97699.26;1684041;84;21436;-78
2021/07/13 04:02:06;;;;;;;10.82;5.65;;;;;;;14.98;94.03;97704.39;1692154;84;21389;-81
2021/07/13 04:04:38;;;;;;;10.18;5.30;;;;;;;15.00;94.00;97704.31;1695961;84;20989;-85
2021/07/13 04:07:27;;;;;;;9.80;5.85;;;;;;;15.04;93.92;97702.58;1695735;84;20889;-75
2021/07/13 04:10:16;;;;;;;9.03;6.03;;;;;;;15.07;94.24;97697.84;1696143;84;20970;-80
2021/07/13 04:13:05;;;;;;;8.90;6.00;;;;;;;15.16;94.02;97700.03;1696047;84;20897;-81
2021/07/13 04:15:37;;;;;;;6.30;5.67;;;;;;;15.21;93.80;97691.70;1675402;84;26273;-80
2021/07/13 04:18:03;;;;;;;10.40;6.72;;;;;;;15.33;94.21;97696.55;1684107;84;21438;-80
2021/07/13 04:20:29;;;;;;;6.78;5.67;;;;;;;15.46;93.84;97698.87;1642357;84;21567;-79
2021/07/13 04:22:55;;;;;;;7.47;5.40;;;;;;;15.58;93.48;97694.97;1701075;84;21036;-75
2021/07/13 04:25:21;;;;;;;5.95;5.22;;;;;;;15.69;93.12;97692.19;1695676;84;20873;-75
2021/07/13 04:27:47;;;;;;;7.25;5.10;;;;;;;15.63;92.35;97690.73;1710556;83;21310;-75
2021/07/13 04:30:14;;;;;;;8.10;5.67;;;;;;;15.67;92.69;97687.62;1718918;82;20913;-79
2021/07/13 04:32:40;;;;;;;8.13;5.50;;;;;;;15.75;92.60;97696.95;1714812;83;20982;-80
2021/07/13 04:35:07;;;;;;;5.85;5.10;;;;;;;15.74;92.16;97698.08;1715153;83;21033;-80
2021/07/13 04:37:33;;;;;;;7.28;5.80;;;;;;;15.72;92.45;97689.38;1714753;83;21004;-80
2021/07/13 04:39:59;;;;;;;8.75;6.55;;;;;;;15.84;92.42;97687.39;1715124;83;21046;-80
2021/07/13 04:42:25;;;;;;;14.60;6.97;;;;;;;15.87;91.90;97682.07;1734164;82;20994;-80
2021/07/13 04:44:51;;;;;;;7.25;6.28;;;;;;;15.94;91.95;97687.86;1709199;84;21433;-80
2021/07/13 04:47:17;;;;;;;13.32;6.30;;;;;;;16.04;91.88;97683.98;1696290;84;20901;-79
2021/07/13 04:49:43;;;;;;;6.22;5.22;;;;;;;16.15;91.87;97689.92;1696546;84;20873;-80
2021/07/13 04:52:09;;;;;;;5.70;5.10;;;;;;;16.27;91.82;97681.31;1696439;84;21188;-79
2021/07/13 04:54:35;;;;;;;9.63;6.62;;;;;;;16.42;91.66;97684.09;1691769;84;21119;-79
2021/07/13 04:57:02;;;;;;;8.90;6.40;;;;;;;16.55;91.42;97681.72;1688943;84;20897;-80
2021/07/13 04:59:28;;;;;;;11.88;6.10;;;;;;;16.68;90.87;97677.75;1687978;84;20996;-79
2021/07/13 05:01:54;;;;;;;10.78;5.80;;;;;;;16.79;90.18;97672.97;1688996;83;20912;-79
2021/07/13 05:04:20;;;;;;;5.75;4.85;;;;;;;17.01;90.51;97669.75;1712494;82;22718;-80
2021/07/13 05:06:46;;;;;;;6.00;5.03;;;;;;;17.15;89.94;97667.56;1709058;84;21534;-81
2021/07/13 05:09:11;;;;;;;7.60;6.12;;;;;;;17.24;89.08;97668.31;1696268;84;20976;-83
2021/07/13 05:11:37;;;;;;;7.75;5.60;;;;;;;17.43;89.32;97667.86;1696415;84;20955;-79
2021/07/13 05:14:04;;;;;;;6.35;5.70;;;;;;;17.57;88.70;97667.05;1676698;84;21445;-79
2021/07/13 05:16:31;;;;;;;9.75;5.62;;;;;;;17.75;88.53;97668.55;1668197;84;21377;-75
2021/07/13 05:18:59;;;;;;;10.25;6.03;;;;;;;17.83;87.31;97670.98;1639138;86;21004;-73
2021/07/13 05:21:24;;;;;;;9.70;6.80;;;;;;;17.87;87.35;97665.66;1667897;85;21300;-73
2021/07/13 05:23:51;;;;;;;8.78;7.30;;;;;;;18.04;87.65;97663.55;1667690;86;21000;-74
2021/07/13 05:26:16;;;;;;;12.37;7.25;;;;;;;18.16;87.83;97666.90;1667917;86;21616;-73
2021/07/13 05:28:43;;;;;;;14.63;7.47;;;;;;;18.43;87.75;97666.86;1669198;84;21266;-74
2021/07/13 05:31:08;;;;;;;9.50;8.20;;;;;;;18.48;87.26;97667.23;1670803;85;21044;-73
2021/07/13 05:33:34;;;;;;;10.28;8.08;;;;;;;18.54;87.21;97663.11;1670562;86;20984;-74
2021/07/13 05:36:00;;;;;;;10.75;7.80;;;;;;;18.64;87.20;97668.75;1669759;86;20861;-74
2021/07/13 05:38:26;;;;;;;9.13;7.47;;;;;;;18.80;87.24;97669.15;1670824;86;20956;-74
2021/07/13 05:40:52;;;;;;;8.03;7.22;;;;;;;19.06;87.30;97668.02;1670852;86;21306;-74
2021/07/13 05:43:18;;;;;;;8.65;7.55;;;;;;;19.28;86.96;97666.16;1670580;86;20948;-74
2021/07/13 05:45:47;;;;;;;13.05;8.88;;;;;;;19.44;86.41;97672.55;1670059;86;20904;-73
2021/07/13 05:48:12;;;;;;;;;;;;;;;19.58;86.24;97668.67;1673069;86;20956;-73
2021/07/13 05:50:38;;;;;;;9.50;7.97;;;;;;;19.79;86.71;97666.55;1670816;86;20200;-73
2021/07/13 05:53:04;;;;;;;10.03;8.93;;;;;;;19.91;84.95;97671.19;1670696;85;21159;-73
2021/07/13 05:55:30;;;;;;;12.40;10.63;;;;;;;19.91;84.42;97672.56;1670840;85;20976;-72
2021/07/13 05:57:56;;;;;;;11.73;9.00;;;;;;;19.94;84.88;97669.94;1670793;86;20865;-72
2021/07/13 06:00:22;;;;;;;12.05;9.75;;;;;;;20.08;83.87;97661.84;1670838;85;20865;-72
2021/07/13 06:02:48;;;;;;;12.50;9.85;;;;;;;20.22;84.62;97671.88;1670663;86;21377;-73
2021/07/13 06:05:14;;;;;;;15.88;10.23;;;;;;;20.33;83.41;97672.96;1670814;86;22075;-72
2021/07/13 06:07:43;;;;;;;14.23;10.38;;;;;;;20.44;82.43;97674.67;1670534;86;20959;-73
2021/07/13 06:10:10;;;;;;;17.82;10.85;;;;;;;20.44;83.04;97669.17;1670455;86;21045;-73
2021/07/13 06:12:36;;;;;;;12.35;11.08;;;;;;;20.52;82.77;97665.45;1670588;85;21452;-74
2021/07/13 06:15:04;;;;;;;13.98;10.28;;;;;;;20.73;82.09;97670.13;1670879;85;20972;-72
2021/07/13 06:17:30;;;;;;;11.10;9.73;;;;;;;20.75;82.20;97668.39;1670804;85;21028;-73
2021/07/13 06:19:56;;;;;;;16.77;10.48;;;;;;;20.89;82.25;97667.95;1670832;86;21582;-72
2021/07/13 06:22:22;;;;;;;11.22;10.13;;;;;;;21.15;82.58;97666.03;1670720;86;20909;-73
2021/07/13 06:24:48;;;;;;;10.15;9.15;;;;;;;21.35;81.53;97672.64;1670602;85;20948;-73
2021/07/13 06:27:14;;;;;;;13.90;8.55;;;;;;;21.43;81.62;97670.05;1670701;86;20952;-73
2021/07/13 06:29:40;;;;;;;11.35;10.18;;;;;;;21.50;79.85;97665.50;1661013;84;21167;-73
2021/07/13 06:32:07;;;;;;;10.72;9.73;;;;;;;21.60;80.01;97665.52;1660747;86;21666;-73
2021/07/13 06:34:33;;;;;;;12.53;11.15;;;;;;;21.75;79.68;97655.02;1660627;86;20966;-72
2021/07/13 06:36:59;;;;;;;13.35;10.95;;;;;;;21.93;80.56;97656.77;1660799;85;21013;-73
2021/07/13 06:39:25;;;;;;;12.43;9.83;;;;;;;22.05;80.28;97656.64;1660749;86;20944;-73
2021/07/13 06:41:51;;;;;;;13.85;11.03;;;;;;;22.27;80.06;97650.17;1661015;86;21172;-73
2021/07/13 06:44:17;;;;;;;12.63;11.10;;;;;;;22.43;79.96;97655.02;1660634;86;20915;-74
2021/07/13 06:46:43;;;;;;;13.72;11.30;;;;;;;22.64;79.85;97655.39;1660889;86;21658;-73
2021/07/13 06:49:09;;;;;;;14.50;11.65;;;;;;;22.84;79.03;97649.83;1660729;86;20865;-74
2021/07/13 06:51:34;;;;;;;13.35;10.30;;;;;;;22.95;78.43;97647.47;1660923;86;21063;-73
2021/07/13 06:54:00;;;;;;;16.12;11.18;;;;;;;22.92;76.13;97649.60;1660913;86;21036;-73
2021/07/13 06:56:26;;;;;;;10.95;9.83;;;;;;;22.79;77.03;97646.77;1660843;86;20881;-73
2021/07/13 06:58:52;;;;;;;11.73;10.35;;;;;;;22.91;77.26;97642.48;1660753;86;20997;-73
2021/07/13 07:01:18;;;;;;;14.00;10.82;;;;;;;23.05;77.06;97642.70;1660822;86;20933;-73
2021/07/13 07:03:44;;;;;;;11.63;9.68;;;;;;;23.27;76.45;97640.28;1660875;85;20945;-73
2021/07/13 07:06:10;;;;;;;13.72;11.80;;;;;;;23.34;76.23;97635.66;1660972;86;21921;-73
2021/07/13 07:08:36;;;;;;;15.63;11.30;;;;;;;23.46;75.26;97635.22;1660879;86;20877;-74
2021/07/13 07:11:02;;;;;;;15.60;11.40;;;;;;;23.49;75.43;97632.48;1660947;86;20944;-73
2021/07/13 07:13:28;;;;;;;12.75;10.70;;;;;;;23.62;75.52;97627.57;1660907;86;20892;-73
2021/07/13 07:15:54;;;;;;;12.73;9.33;;;;;;;23.77;75.56;97628.56;1660934;86;20909;-73
2021/07/13 07:18:20;;;;;;;13.70;9.68;;;;;;;23.98;74.13;97622.48;1660822;86;21249;-73
2021/07/13 07:20:46;;;;;;;13.22;9.80;;;;;;;24.04;72.37;97625.13;1660940;86;20952;-73
2021/07/13 07:23:12;;;;;;;13.15;10.28;;;;;;;24.22;71.56;97622.56;1660693;86;21067;-73
2021/07/13 07:25:38;;;;;;;13.15;10.15;;;;;;;24.12;71.29;97623.45;1639955;86;21475;-73
2021/07/13 07:28:04;;;;;;;13.75;9.60;;;;;;;23.97;72.64;97620.89;1662049;84;20988;-74
2021/07/13 07:30:30;;;;;;;11.10;10.10;;;;;;;24.05;72.60;97619.21;1670857;85;21179;-74
2021/07/13 07:32:58;;;;;;;15.10;10.93;;;;;;;24.26;72.97;97621.41;1670561;86;21028;-73
2021/07/13 07:35:25;;;;;;;9.90;8.90;;;;;;;24.48;72.16;97619.70;1644103;86;20988;-73
2021/07/13 07:37:51;;;;;;;10.75;9.65;;;;;;;24.70;72.38;97622.09;1670645;86;20960;-73
2021/07/13 07:40:19;;;;;;;10.80;9.70;;;;;;;25.38;71.65;97620.66;1670588;86;21044;-73
2021/07/13 07:42:51;;;;;;;11.20;9.68;;;;;;;25.99;70.38;97620.98;1670616;85;21235;-73
2021/07/13 07:45:18;;;;;;;12.23;9.58;;;;;;;26.48;67.61;97620.92;1670404;86;21000;-73
2021/07/13 07:47:45;;;;;;;10.55;9.55;;;;;;;26.65;65.67;97620.16;1670472;86;20956;-73
2021/07/13 07:50:12;;;;;;;11.12;8.75;;;;;;;26.93;65.64;97618.80;1670699;86;20952;-73
2021/07/13 07:52:38;;;;;;;10.23;9.13;;;;;;;27.12;63.69;97619.02;1670828;86;21013;-73
2021/07/13 07:55:08;;;;;;;11.15;10.05;;;;;;;27.15;64.29;97607.68;1670603;86;21377;-72
2021/07/13 07:57:34;;;;;;;9.63;8.65;;;;;;;27.39;62.98;97609.63;1670652;86;20936;-73
2021/07/13 08:00:00;;;;;;;11.43;8.80;;;;;;;27.51;64.25;97609.79;1670644;86;20965;-72
2021/07/13 08:02:26;;;;;;;12.00;9.85;;;;;;;27.96;62.26;97612.27;1670700;86;21012;-73
2021/07/13 08:04:52;;;;;;;10.25;9.10;;;;;;;28.19;63.09;97612.34;1670789;86;21020;-73
2021/07/13 08:07:21;;;;;;;9.35;8.38;;;;;;;28.61;60.84;97605.74;1670989;85;21194;-74
2021/07/13 08:09:46;;;;;;;9.73;8.40;;;;;;;28.78;58.12;97598.45;1670709;85;20984;-74
2021/07/13 08:12:12;;;;;;;10.82;9.85;;;;;;;28.59;59.35;97595.61;1670943;86;20944;-74
2021/07/13 08:14:39;;;;;;;14.85;8.73;;;;;;;28.92;60.09;97592.19;1670676;85;20897;-74
2021/07/13 08:17:05;;;;;;;9.55;8.70;;;;;;;29.21;58.74;97592.71;1670888;85;21048;-74
2021/07/13 08:19:35;;;;;;;8.68;7.80;;;;;;;29.68;57.42;97589.47;1670796;86;21324;-75
2021/07/13 08:21:59;;;;;;;18.37;10.50;;;;;;;29.97;55.53;97587.11;1670714;86;21516;-75
2021/07/13 08:24:25;;;;;;;10.90;8.43;;;;;;;30.01;56.51;97584.47;1670878;86;20991;-74
2021/07/13 08:26:50;;;;;;;9.23;8.38;;;;;;;30.55;55.29;97583.13;1670944;86;20822;-74
2021/07/13 08:29:16;;;;;;;8.28;7.53;;;;;;;30.81;53.55;97587.74;1665840;86;21571;-74
2021/07/13 08:31:42;;;;;;;8.93;7.28;;;;;;;31.03;51.91;97586.17;1661037;86;21253;-74
2021/07/13 08:34:08;;;;;;;11.15;7.83;;;;;;;31.01;51.02;97592.78;1660972;86;20948;-74
2021/07/13 08:36:34;;;;;;;8.00;6.78;;;;;;;30.69;51.44;97590.53;1660967;86;20869;-74
2021/07/13 08:39:00;;;;;;;7.95;6.95;;;;;;;30.99;50.33;97594.44;1661054;86;20881;-75
2021/07/13 08:41:28;;;;;;;11.70;7.03;;;;;;;31.40;50.36;97594.92;1639779;86;21527;-75
2021/07/13 08:43:54;;;;;;;9.55;6.05;;;;;;;31.51;47.90;97596.72;1661016;86;21374;-75
2021/07/13 08:46:19;;;;;;;7.70;6.65;;;;;;;32.38;47.84;97600.17;1660958;86;20873;-75
2021/07/13 08:48:47;;;;;;;6.80;6.17;;;;;;;32.50;47.55;97607.30;1661039;86;20956;-75
2021/07/13 08:51:13;;;;;;;6.78;6.17;;;;;;;33.02;46.46;97593.07;1660818;86;20993;-75
2021/07/13 08:53:39;;;;;;;8.48;6.10;;;;;;;33.49;45.78;97594.06;1661018;86;21177;-75
2021/07/13 08:56:05;;;;;;;9.30;6.35;;;;;;;33.56;42.68;97593.25;1661013;86;21716;-74
2021/07/13 08:58:31;;;;;;;8.23;7.42;;;;;;;33.75;43.68;97590.11;1660918;86;21044;-75
2021/07/13 09:00:57;;;;;;;6.62;6.03;;;;;;;34.18;43.50;97585.48;1661030;86;20909;-75
2021/07/13 09:03:23;;;;;;;9.33;6.10;;;;;;;33.74;39.07;97585.73;1660681;86;20897;-75
2021/07/13 09:05:52;;;;;;;6.35;5.37;;;;;;;34.27;39.91;97589.63;1660807;86;20968;-75
2021/07/13 09:08:32;;;;;;;6.42;5.83;;;;;;;33.85;41.75;97587.64;1660711;86;21243;-74
2021/07/13 09:11:13;;;;;;;6.65;5.72;;;;;;;34.67;40.73;97587.98;1660923;86;21009;-76
2021/07/13 09:13:42;;;;;;;6.95;6.22;;;;;;;34.62;38.88;97592.80;1660899;86;21032;-75
2021/07/13 09:16:12;;;;;;;9.90;6.58;;;;;;;35.17;38.85;97571.50;1660878;86;21045;-74
2021/07/13 09:18:41;;;;;;;8.15;6.62;;;;;;;35.00;38.97;97572.27;1660685;86;21005;-76
2021/07/13 09:21:26;;;;;;;6.80;6.15;;;;;;;35.63;39.18;97569.09;1660896;86;21916;-76
2021/07/13 09:24:20;;;;;;;7.00;5.92;;;;;;;36.30;35.77;97571.42;1660785;85;21057;-75
2021/07/13 09:26:56;;;;;;;9.05;6.12;;;;;;;35.94;36.00;97575.61;1660769;86;20990;-74
2021/07/13 09:29:37;;;;;;;6.70;6.10;;;;;;;35.69;36.69;97576.50;1660601;84;20949;-75
2021/07/13 09:32:32;;;;;;;7.58;5.42;;;;;;;36.73;35.52;97574.12;1660807;86;21040;-75
2021/07/13 09:35:03;;;;;;;6.85;6.17;;;;;;;36.78;35.64;97579.80;1660779;86;21848;-77
2021/07/13 09:37:43;;;;;;;6.95;6.35;;;;;;;36.54;36.65;97571.71;1659788;86;21425;-76
2021/07/13 09:40:17;;;;;;;6.85;6.25;;;;;;;36.76;35.64;97572.42;1660742;86;21490;-75
2021/07/13 09:42:51;;;;;;;7.40;6.42;;;;;;;35.92;34.72;97563.23;1660835;86;21436;-76
2021/07/13 09:45:31;;;;;;;6.58;5.97;;;;;;;36.59;34.52;97567.67;1660720;86;21041;-76
2021/07/13 09:48:10;;;;;;;6.75;5.62;;;;;;;36.63;32.29;97562.66;1660946;85;21085;-74
2021/07/13 09:50:42;;;;;;;6.62;5.83;;;;;;;37.05;32.97;97564.98;1660611;86;20984;-76
2021/07/13 09:53:11;;;;;;;7.92;5.12;;;;;;;37.29;33.27;97559.52;1660673;86;21484;-76
2021/07/13 09:55:38;;;;;;;6.67;5.55;;;;;;;37.02;31.64;97548.20;1660609;86;21429;-75
2021/07/13 09:58:15;;;;;;;7.00;6.03;;;;;;;37.02;32.34;97553.22;1660971;86;20986;-76
2021/07/13 10:00:43;;;;;;;7.03;5.53;;;;;;;36.95;31.08;97556.34;1658337;86;21437;-76
2021/07/13 10:03:12;;;;;;;6.22;5.30;;;;;;;37.64;30.91;97554.36;1660704;86;20981;-75
2021/07/13 10:05:39;;;;;;;7.87;5.50;;;;;;;38.22;31.47;97550.50;1660579;86;21441;-76
2021/07/13 10:08:05;;;;;;;7.50;5.70;;;;;;;38.61;31.41;97547.83;1660704;86;21458;-76
2021/07/13 10:10:31;;;;;;;7.05;5.53;;;;;;;37.43;30.89;97536.34;1660761;86;20981;-75
2021/07/13 10:12:57;;;;;;;6.17;5.60;;;;;;;37.31;29.05;97538.67;1660785;86;22036;-75
2021/07/13 10:15:23;;;;;;;5.75;5.25;;;;;;;38.15;30.51;97532.45;1660666;86;20949;-76
2021/07/13 10:17:49;;;;;;;8.60;5.53;;;;;;;37.55;30.41;97540.24;1660820;86;21398;-75
2021/07/13 10:20:16;;;;;;;6.08;4.97;;;;;;;39.25;28.97;97538.22;1660634;86;20885;-75
2021/07/13 10:22:43;;;;;;;6.17;5.50;;;;;;;39.71;27.72;97536.56;1660980;86;21012;-75
2021/07/13 10:25:10;;;;;;;6.28;5.67;;;;;;;39.69;27.99;97539.74;1660798;86;21320;-75
2021/07/13 10:27:41;;;;;;;6.40;5.03;;;;;;;38.94;27.16;97535.88;1682265;85;21031;-77
2021/07/13 10:30:23;;;;;;;5.95;5.28;;;;;;;39.54;28.25;97529.77;1684749;84;20962;-75
2021/07/13 10:32:49;;;;;;;5.90;5.33;;;;;;;39.30;28.43;97524.14;1719455;83;20945;-75
2021/07/13 10:35:24;;;;;;;8.18;5.33;;;;;;;39.72;28.56;97526.00;1719702;83;21044;-77
2021/07/13 10:38:08;;;;;;;5.42;4.85;;;;;;;39.48;28.05;97515.52;1719305;83;21127;-76
2021/07/13 10:40:39;;;;;;;7.30;5.22;;;;;;;40.50;26.21;97531.61;1719372;83;20950;-75
2021/07/13 10:43:18;;;;;;;5.10;4.60;;;;;;;40.39;27.07;97520.07;1719438;83;20969;-76
2021/07/13 10:45:46;;;;;;;5.85;5.30;;;;;;;40.75;26.26;97516.61;1719322;83;20917;-76
2021/07/13 10:48:20;;;;;;;5.72;5.08;;;;;;;40.84;26.49;97523.58;1719413;83;20923;-76
2021/07/13 10:51:05;;;;;;;6.05;5.50;;;;;;;41.18;24.51;97520.56;1719333;83;21788;-76
2021/07/13 10:53:42;;;;;;;8.93;7.28;;;;;;;40.89;24.20;97514.39;1719453;83;20969;-76
2021/07/13 10:56:18;;;;;;;10.40;5.62;;;;;;;40.91;25.61;97520.98;1719318;83;20942;-76
2021/07/13 10:58:52;;;;;;;5.85;5.35;;;;;;;40.73;26.16;97527.69;1718069;83;20973;-76
2021/07/13 11:01:30;;;;;;;7.12;5.50;;;;;;;41.19;25.00;97517.85;1719367;83;21008;-76
2021/07/13 11:03:58;;;;;;;7.72;5.12;;;;;;;39.42;27.35;97518.86;1719655;83;21378;-75
2021/07/13 11:06:48;;;;;;;7.80;5.67;;;;;;;38.97;27.97;97517.76;1719262;83;20949;-75
2021/07/13 11:09:27;;;;;;;5.75;5.00;;;;;;;38.60;29.03;97514.51;1719585;83;21020;-75
2021/07/13 11:12:08;;;;;;;7.20;5.00;;;;;;;39.33;28.58;97511.86;1719441;83;20910;-76
2021/07/13 11:14:49;;;;;;;8.98;5.12;;;;;;;39.84;27.23;97502.27;1708735;83;21044;-76
2021/07/13 11:17:20;;;;;;;5.67;5.15;;;;;;;39.92;26.86;97498.41;1719414;83;21800;-76
2021/07/13 11:19:46;;;;;;;5.97;5.37;;;;;;;41.03;25.41;97496.51;1707045;83;20964;-76
2021/07/13 11:22:18;;;;;;;5.78;5.20;;;;;;;41.32;24.98;97487.69;1719731;83;20967;-76
2021/07/13 11:24:44;;;;;;;5.92;4.90;;;;;;;40.47;24.52;97490.67;1719503;83;20969;-76
2021/07/13 11:27:10;;;;;;;5.83;4.58;;;;;;;41.12;25.69;97482.80;1719779;83;22209;-76
2021/07/13 11:29:36;;;;;;;9.60;4.87;;;;;;;40.81;24.96;97486.25;1723391;82;21611;-76
2021/07/13 11:32:04;;;;;;;4.83;4.35;;;;;;;40.67;24.32;97476.50;1735752;82;20874;-76
2021/07/13 11:34:32;;;;;;;8.48;5.08;;;;;;;38.91;25.89;97464.65;1734859;82;20982;-76
2021/07/13 11:36:58;;;;;;;6.97;5.20;;;;;;;39.13;26.15;97467.16;1735282;82;20950;-76